Flight Track Log - Related Links

Times and Time Zones

All times are in EDT time to prevent confusion due to time zone crossing. See the SWA286 flight status page for this flight to view local times or setup timezone preferences in your user account.


Time Position Orientation Groundspeed Altitude Reporting Facility
EDT Latitude Longitude Course Direction KTS MPH feet Rate Location/Type
Sun 03:21:46 PM 40.7789 -73.1308 221° Southwest 133 153 1,900  Level Boston Center
Sun 03:22:47 PM 40.7353 -73.1331 182° South 134 154 5,000 3,148 Climbing Boston Center
Sun 03:23:48 PM 40.7192 -73.0369 102° East 153 176 8,300 3,025 Climbing Boston Center
Sun 03:24:46 PM 40.6592 -72.9625 137° Southeast 230 265 11,000 2,797 Climbing Boston Center
Sun 03:25:46 PM 40.5761 -72.8992 150° Southeast 299 344 13,800 3,000 Climbing Boston Center
Sun 03:26:46 PM 40.5008 -72.9642 213° Southwest 271 312 17,000 2,876 Climbing Boston Center
Sun 03:27:00 PM 40.7232 -72.5449 221° Southwest  Level FlightAware Approximate
Sun 03:27:47 PM 40.4358 -73.0264 216° Southwest 299 344 19,600  Level Boston Center
Sun 03:29:59 PM 40.2361 -73.2356 219° Southwest 381 438 24,900 2,500 Climbing Washington Center
Sun 03:30:59 PM 40.1461 -73.3253 217° Southwest 401 461 27,600 1,550 Climbing Washington Center
Sun 03:31:59 PM 40.0583 -73.4175 219° Southwest 411 473 28,000 200 Climbing Washington Center
Sun 03:32:59 PM 39.9703 -73.5069 218° Southwest 416 479 28,000  Level Washington Center
Sun 03:33:59 PM 39.8761 -73.5989 217° Southwest 416 479 28,000  Level Washington Center
Sun 03:34:59 PM 39.7858 -73.6906 218° Southwest 416 479 28,000  Level Washington Center
Sun 03:35:59 PM 39.6956 -73.7847 219° Southwest 416 479 28,000  Level Washington Center
Sun 03:36:59 PM 39.6244 -73.8997 231° Southwest 416 479 28,000  Level Washington Center
Sun 03:37:59 PM 39.5531 -74.0169 232° Southwest 410 472 28,000 -250 Level Washington Center
Sun 03:38:59 PM 39.4858 -74.1289 232° Southwest 410 472 27,500 -800 Descending Washington Center
Sun 03:39:59 PM 39.4203 -74.2350 231° Southwest 397 457 26,400 -1,050 Descending Washington Center
Sun 03:40:59 PM 39.3528 -74.3436 231° Southwest 391 450 25,400 -1,000 Descending Washington Center
Sun 03:41:59 PM 39.2892 -74.4492 232° Southwest 385 443 24,400 -1,000 Descending Washington Center
Sun 03:42:59 PM 39.2256 -74.5519 231° Southwest 380 437 23,400 -1,000 Descending Washington Center
Sun 03:43:59 PM 39.1617 -74.6572 232° Southwest 374 430 22,400 -1,400 Descending Washington Center
Sun 03:44:59 PM 39.0978 -74.7572 231° Southwest 369 425 20,600 -1,800 Descending Washington Center
Sun 03:45:59 PM 39.0442 -74.8433 231° Southwest 363 418 18,800 -1,450 Descending Washington Center
Sun 03:46:59 PM 38.9864 -74.9372 232° Southwest 349 402 17,700 -1,050 Descending Washington Center
Sun 03:47:59 PM 38.9286 -75.0258 230° Southwest 344 396 16,700 -850 Descending Washington Center
Sun 03:48:59 PM 38.8686 -75.1225 231° Southwest 344 396 16,000 -700 Descending Washington Center
Sun 03:49:59 PM 38.8147 -75.2186 234° Southwest 344 396 15,300 -850 Descending Washington Center
Sun 03:50:59 PM 38.8006 -75.3386 261° West 327 376 14,300 -1,000 Descending Washington Center
Sun 03:51:59 PM 38.7944 -75.4506 266° West 322 371 13,300 -650 Descending Washington Center
Sun 03:52:59 PM 38.7883 -75.5650 266° West 327 376 13,000 -150 Descending Washington Center
Sun 03:53:59 PM 38.7819 -75.6794 266° West 327 376 13,000 -350 Level Washington Center
Sun 03:54:59 PM 38.7756 -75.7939 266° West 333 383 12,300 -850 Descending Washington Center
Sun 03:55:59 PM 38.7669 -75.9058 264° West 327 376 11,300 -950 Descending Washington Center
Sun 03:56:59 PM 38.7603 -76.0069 265° West 308 354 10,400 -1,000 Descending Washington Center
Sun 03:57:59 PM 38.7767 -76.0975 283° West 283 326 9,300 -1,300 Descending Washington Center
Sun 03:58:59 PM 38.8139 -76.1883 298° West 258 297 7,800 -1,550 Descending Washington Center
Sun 03:59:59 PM 38.8447 -76.2686 296° West 264 304 6,200 -1,300 Descending Washington Center
Sun 04:00:59 PM 38.8756 -76.3517 296° West 259 298 5,200 -1,000 Descending Washington Center
Sun 04:01:53 PM 38.9000 -76.4167 296° West 257 296 4,300 -637 Descending Potomac TRACON
Sun 04:02:52 PM 38.9333 -76.5000 297° West 252 290 4,000 -151 Descending Potomac TRACON
Sun 04:03:52 PM 38.9667 -76.5833 297° West 250 288 4,000  Level Potomac TRACON
Sun 04:04:52 PM 39.0000 -76.6667 297° West 254 292 4,000  Level Potomac TRACON
Sun 04:05:46 PM 39.0333 -76.7333 303° West 260 299 4,000  Level Potomac TRACON
Sun 04:06:47 PM 39.0667 -76.8000 303° West 227 261 4,000 -378 Level Potomac TRACON
Sun 04:07:53 PM 39.1333 -76.8167 349° North 224 258 3,200 -750 Descending Potomac TRACON
Sun 04:08:47 PM 39.1667 -76.8167 360° North 180 207 2,500 -947 Descending Potomac TRACON
Sun 04:09:47 PM 39.1833 -76.7667 67° East 145 167 1,400 -900 Descending Potomac TRACON
Sun 04:10:47 PM 39.1833 -76.7167 90° East 139 160 700 -700 Descending Potomac TRACON

Login

Don't have an account? Register now (free) for customized features, flight alerts, and more!